x

Pensacola - 115nm Ese Of Pensacola, Fl (42039) Wave Buoy

12:50am - Tue 21st Nov 2017 All times are CST. -6 hours from GMT.

  • Sig Wave height 2.3ft
  • Swell Direction
  • Peak Period 6s
  • Average Period 4s
  • Wind
    18mph, 20mph gusts
  • Sea Temp 77°f
  • Air Temp 68°f
  • Sea Pressure 1017.2mb
  • Pensacola - 115nm Ese Of Pensacola, Fl
  • Pensacola - 115nm Ese Of Pensacola, Fl

More Historic Weather Station data

Upgrade to MSW Pro to gain access to the past 30 days of data for over 8000 Wavebouys and Weather Stations around the globe.

Join

Comparision Forecast

View Surf forecast
   
Tue 11/21 12:50am 2.5ft 6s 4s 18 20 mph 1017.2mb 77f 68f
Mon 11/20 11:50pm 2.5ft 6s 4s 11 16 mph 1017.6mb 77f 69f
10:50pm 2.5ft 6s 4s 9 11 mph 1018.1mb 77f 69f
9:50pm 2.5ft 6s 4s 9 13 mph 1018.8mb 77f 69f
8:50pm 2.5ft 6s 4s 13 18 mph 1019mb 77f 69f
5:50pm 2.5ft 6s 4s 13 16 mph 1018.8mb 77f 66f
4:50pm 2.5ft 6s 4s 9 13 mph 1018.7mb 77f 65f
3:50pm 3ft 5s 4s 11 16 mph 1018.8mb 77f 64f
2:50pm 3.5ft 6s 5s 11 16 mph 1019.1mb 77f 64f
1:50pm 3.5ft 5s 5s 11 16 mph 1019.6mb 77f 64f
12:50pm 4.5ft 5s 5s 11 16 mph 1020.1mb 77f 63f
11:50am 4.5ft 6s 5s 13 18 mph 1020.6mb 77f 63f
10:50am 4.5ft 6s 5s 13 16 mph 1021.8mb 78f 63f
9:50am 5ft 6s 5s 16 20 mph 1021.8mb 78f 62f
8:50am 5ft 6s 5s 16 20 mph 1021.9mb 78f 61f
7:50am 4.5ft 6s 5s 16 20 mph 1021.5mb 78f 60f
6:50am 4.5ft 6s 5s 16 20 mph 1021.1mb 78f 60f
5:50am 4.5ft 6s 5s 16 25 mph 1020.6mb 78f 59f
4:50am 5ft 6s 5s 18 25 mph 1020.1mb 78f 60f
3:50am 5ft 6s 5s 18 25 mph 1019.9mb 78f 60f
2:50am 5ft 5s 5s 20 25 mph 1019.7mb 78f 61f
1:50am 5ft 6s 5s 20 25 mph 1019.7mb 78f 62f
12:50am 5ft 6s 5s 20 25 mph 1019.5mb 78f 62f
Sun 11/19 11:50pm 5.5ft 6s 5s 20 27 mph 1019.8mb 78f 63f
10:50pm 5.5ft 6s 5s 20 27 mph 1019.8mb 78f 63f
9:50pm 5ft 6s 5s 22 27 mph 1019.6mb 78f 64f
8:50pm 5ft 6s 5s 22 27 mph 1019mb 78f 65f
7:50pm 5.5ft 6s 5s 25 29 mph 1018mb 78f 66f
6:50pm 5ft 7s 5s 22 29 mph 1017.4mb 78f 66f
5:50pm 5.5ft 6s 5s 22 29 mph 1016.6mb 78f 65f
4:50pm 6ft 7s 5s 22 27 mph 1016.1mb 78f 65f
3:50pm 6ft 8s 5s 22 27 mph 1015.7mb 78f 64f
2:50pm 7ft 8s 6s 25 27 mph 1015.1mb 78f 64f
1:50pm 7.5ft 7s 6s 25 31 mph 1014.9mb 78f 64f
12:50pm 8ft 7s 6s 27 31 mph 1015.3mb 78f 64f
11:50am 7.5ft 7s 6s 25 31 mph 1016mb 78f 63f
10:50am 8ft 7s 6s 25 31 mph 1016.6mb 78f 63f
9:50am 8ft 7s 6s 25 29 mph 1016.8mb 78f 63f
8:50am 8ft 7s 6s 25 31 mph 1016.3mb 78f 64f
7:50am 7ft 6s 5s 25 31 mph 1015.1mb 77f 65f
6:50am 6ft 7s 5s 27 31 mph 1014.1mb 77f 66f
5:50am 5.5ft 7s 5s 27 34 mph 1013.2mb 77f 68f
4:50am 5.5ft 6s 5s 27 29 mph 1012.1mb 77f 70f
3:50am 5ft 6s 5s 27 36 mph 1011.1mb 77f 74f
2:50am 4.5ft 5s 4s 20 25 mph 1011mb 77f 78f
1:50am 4.5ft 5s 4s 20 25 mph 1011.4mb 78f 78f
12:50am 3.5ft 5s 4s 20 25 mph 1012mb 78f 78f
Sat 11/18 11:50pm 3.5ft 5s 4s 20 25 mph 1012.2mb 78f 77f
10:50pm 3ft 4s 4s 20 22 mph 1012.8mb 78f 77f
9:50pm 2.5ft 4s 3s 20 22 mph 1012.9mb 78f 77f
8:50pm 2ft 4s 3s 18 20 mph 1013.5mb 78f 76f
7:50pm 2ft 4s 3s 16 20 mph 1013.5mb 78f 75f
6:50pm 1.6ft 3s 3s 16 20 mph 1013.2mb 78f 75f
5:50pm 1.6ft 3s 3s 16 22 mph 1013mb 78f 75f
4:50pm 1.3ft 3s 3s 13 18 mph 1013.3mb 78f 75f
3:50pm 1.3ft 3s 3s 13 18 mph 1013mb 78f 75f
2:50pm 1.3ft 3s 3s 13 16 mph 1013.1mb 78f 75f
1:50pm 1ft 3s 3s 13 16 mph 1013.4mb 78f 74f
12:50pm 1ft 3s 3s 11 16 mph 1014.1mb 78f 74f
11:50am 1ft 24s 3s 11 16 mph 1014.9mb 78f 74f
10:50am 0.7ft  -  3s 11 13 mph 1016.1mb 77f 73f
9:50am 0.7ft  -  3s 9 13 mph 1016.6mb 77f 73f
7:50am 0.7ft  -  4s 7 11 mph 1016.4mb 77f 73f
6:50am 0.7ft  -  4s 7 11 mph 1016.2mb 77f 72f
5:50am 0.7ft  -  4s 7 9 mph 1016.1mb 77f 72f
4:50am 0.7ft  -  4s 7 9 mph 1015.8mb 77f 72f
3:50am 0.7ft  -  4s 7 9 mph 1015.6mb 77f 71f
2:50am 0.7ft  -  4s 7 9 mph 1015.8mb 77f 71f
1:50am 0.7ft  -  4s 7 9 mph 1016.2mb 77f 71f
12:50am 0.7ft  -  4s 7 9 mph 1016.8mb 77f 71f
Fri 11/17 11:50pm 0.7ft  -  4s 7 9 mph 1017.4mb 77f 71f
10:50pm 0.7ft  -  4s 4 7 mph 1017.7mb 77f 71f
9:50pm 0.7ft  -  3s 4 7 mph 1018.2mb 77f 71f
8:50pm 1ft 3s 3s 4 7 mph 1018.5mb 77f 71f
7:50pm 1ft 4s 3s 2 4 mph 1018.6mb 77f 70f
6:50pm 1ft 4s 3s 4 7 mph 1018.4mb 77f 70f
5:50pm 1ft 4s 3s 4 7 mph 1018.2mb 77f 70f
4:50pm 1.3ft 4s 4s 4 7 mph 1018.2mb 77f 70f
3:50pm 1.3ft 4s 4s 4 7 mph 1017.8mb 77f 71f
2:50pm 1.3ft 4s 4s 7 9 mph 1017.7mb 78f 70f
1:50pm 1.6ft 4s 4s 4 9 mph 1018.1mb 77f 70f
12:50pm 1.6ft 4s 4s 7 9 mph 1018.6mb 77f 70f
11:50am 1.6ft 4s 4s 7 9 mph 1019.4mb 77f 70f
10:50am 2ft 4s 4s 9 11 mph 1020.4mb 77f 70f
9:50am 1.6ft 4s 4s 9 11 mph 1021mb 77f 70f
8:50am 1.6ft 4s 4s 11 13 mph 1020.7mb 78f 70f